createdAt,value
2019-01-20T00:02:25.173Z,47.93
2019-01-20T00:04:51.609Z,48.03
2019-01-20T00:07:18.033Z,47.97
2019-01-20T00:09:44.532Z,44.53
2019-01-20T00:12:10.996Z,54.17
2019-01-20T00:14:37.481Z,55.80
2019-01-20T00:17:03.981Z,47.13
2019-01-20T00:19:30.572Z,52.50
2019-01-20T00:21:57.059Z,48.27
2019-01-20T00:24:23.689Z,47.10
2019-01-20T00:26:50.251Z,46.43
2019-01-20T00:29:16.902Z,47.30
2019-01-20T00:31:43.358Z,49.80
2019-01-20T00:34:11.442Z,48.67
2019-01-20T00:36:37.959Z,47.20
2019-01-20T00:40:18.710Z,44.53
2019-01-20T00:42:47.082Z,43.03
2019-01-20T00:45:16.162Z,46.13
2019-01-20T00:47:42.870Z,51.90
2019-01-20T00:50:12.265Z,44.47
2019-01-20T00:52:38.728Z,40.43
2019-01-20T00:55:09.544Z,44.83
2019-01-20T00:57:36.747Z,47.60
2019-01-20T01:00:09.431Z,48.80
2019-01-20T01:02:36.085Z,47.67
2019-01-20T01:05:04.381Z,48.03
2019-01-20T01:07:30.776Z,48.97
2019-01-20T01:09:57.186Z,46.37
2019-01-20T01:12:23.710Z,47.10
2019-01-20T01:14:50.114Z,45.63
2019-01-20T01:17:17.172Z,43.30
2019-01-20T01:19:43.576Z,39.87
2019-01-20T01:22:10.055Z,46.03
2019-01-20T01:24:36.806Z,40.17
2019-01-20T01:27:03.195Z,49.50
2019-01-20T01:29:29.576Z,38.97
2019-01-20T01:31:56.331Z,40.67
2019-01-20T01:34:22.749Z,38.83
2019-01-20T01:36:49.171Z,39.57
2019-01-20T01:39:15.923Z,36.87
2019-01-20T01:41:42.308Z,37.03
2019-01-20T01:44:08.691Z,32.50
2019-01-20T01:46:35.080Z,38.07
2019-01-20T01:49:01.520Z,37.10
2019-01-20T01:51:27.895Z,40.77
2019-01-20T01:53:54.282Z,36.50
2019-01-20T01:56:21.179Z,39.17
2019-01-20T01:58:47.814Z,40.87
2019-01-20T02:01:17.404Z,38.80
2019-01-20T02:03:43.839Z,36.20
2019-01-20T02:06:10.327Z,39.10
2019-01-20T02:08:36.794Z,39.43
2019-01-20T02:11:03.289Z,40.93
2019-01-20T02:13:29.706Z,41.07
2019-01-20T02:15:56.287Z,38.87
2019-01-20T02:18:22.788Z,40.37
2019-01-20T02:20:49.195Z,40.90
2019-01-20T02:23:15.847Z,46.43
2019-01-20T02:25:42.403Z,42.27
2019-01-20T02:28:08.937Z,44.70
2019-01-20T02:30:35.444Z,44.03
2019-01-20T02:33:01.999Z,43.43
2019-01-20T02:35:28.969Z,47.10
2019-01-20T02:37:55.388Z,44.20
2019-01-20T02:40:21.801Z,39.23
2019-01-20T02:42:48.353Z,50.00
2019-01-20T02:45:15.525Z,43.73
2019-01-20T02:47:42.030Z,44.23
2019-01-20T02:50:12.245Z,45.53
2019-01-20T02:52:38.707Z,44.00
2019-01-20T02:55:05.435Z,42.93
2019-01-20T02:57:31.803Z,40.03
2019-01-20T02:59:58.218Z,47.40
2019-01-20T03:02:24.713Z,44.27
2019-01-20T03:04:51.092Z,43.27
2019-01-20T03:07:17.516Z,39.27
2019-01-20T03:09:44.019Z,39.97
2019-01-20T03:12:10.774Z,38.53
2019-01-20T03:14:37.156Z,40.93
2019-01-20T03:17:03.545Z,44.40
2019-01-20T03:19:30.480Z,38.20
2019-01-20T03:21:57.542Z,35.13
2019-01-20T03:24:23.941Z,40.57
2019-01-20T03:26:50.349Z,43.73
2019-01-20T03:29:16.797Z,36.43
2019-01-20T03:31:43.196Z,34.07
2019-01-20T03:34:09.689Z,33.37
2019-01-20T03:36:36.083Z,40.27
2019-01-20T03:39:04.194Z,32.03
2019-01-20T03:41:30.575Z,33.40
2019-01-20T03:43:56.971Z,33.33
2019-01-20T03:46:23.410Z,35.60
2019-01-20T03:48:49.817Z,34.73
2019-01-20T03:51:16.320Z,37.60
2019-01-20T03:53:42.713Z,36.40
2019-01-20T03:56:09.233Z,38.83
2019-01-20T03:58:35.632Z,31.27
2019-01-20T04:01:02.179Z,34.77
2019-01-20T04:03:28.928Z,34.47
2019-01-20T04:05:55.474Z,34.30
2019-01-20T04:08:21.883Z,32.50
2019-01-20T04:10:49.403Z,36.90
2019-01-20T04:13:15.882Z,33.27
2019-01-20T04:15:42.393Z,41.70
2019-01-20T04:18:12.044Z,34.37
2019-01-20T04:20:38.735Z,38.50
2019-01-20T04:23:05.373Z,40.70
2019-01-20T04:25:31.866Z,39.00
2019-01-20T04:27:58.392Z,39.03
2019-01-20T04:30:24.890Z,38.87
2019-01-20T04:32:51.489Z,43.47
2019-01-20T04:35:17.897Z,38.00
2019-01-20T04:37:44.354Z,42.57
2019-01-20T04:40:15.598Z,41.37
2019-01-20T04:42:42.384Z,41.60
2019-01-20T04:45:12.259Z,39.93
2019-01-20T04:47:39.032Z,38.23
2019-01-20T04:50:10.405Z,38.20
2019-01-20T04:52:36.843Z,42.33
2019-01-20T04:55:08.942Z,40.87
2019-01-20T04:57:35.558Z,36.17
2019-01-20T05:00:05.529Z,37.07
2019-01-20T05:02:31.954Z,39.60
2019-01-20T05:04:58.360Z,38.10
2019-01-20T05:07:25.849Z,37.97
2019-01-20T05:09:52.388Z,33.23
2019-01-20T05:12:18.772Z,29.20
2019-01-20T05:14:45.302Z,33.73
2019-01-20T05:17:11.753Z,34.10
2019-01-20T05:19:38.422Z,36.60
2019-01-20T05:22:06.138Z,36.63
2019-01-20T05:24:32.533Z,35.60
2019-01-20T05:26:59.027Z,30.70
2019-01-20T05:29:25.517Z,43.43
2019-01-20T05:31:52.039Z,34.30
2019-01-20T05:34:18.393Z,36.27
2019-01-20T05:36:44.777Z,32.33
2019-01-20T05:39:11.370Z,30.17
2019-01-20T05:41:37.862Z,31.47
2019-01-20T05:44:04.278Z,31.13
2019-01-20T05:46:31.075Z,33.43
2019-01-20T05:48:57.725Z,32.53
2019-01-20T05:51:24.194Z,28.83
2019-01-20T05:53:50.770Z,30.53
2019-01-20T05:56:17.313Z,30.83
2019-01-20T05:58:43.678Z,32.13
2019-01-20T06:01:10.148Z,32.40
2019-01-20T06:03:36.660Z,31.60
2019-01-20T06:06:03.056Z,36.87
2019-01-20T06:08:29.787Z,38.97
2019-01-20T06:10:56.175Z,36.87
2019-01-20T06:13:22.568Z,41.33
2019-01-20T06:15:49.278Z,35.73
2019-01-20T06:18:15.666Z,41.23
2019-01-20T06:20:42.033Z,40.13
2019-01-20T06:23:08.567Z,38.23
2019-01-20T06:25:34.907Z,43.43
2019-01-20T06:28:01.301Z,41.83
2019-01-20T06:30:29.964Z,41.23
2019-01-20T06:32:56.396Z,39.90
2019-01-20T06:35:22.932Z,39.43
2019-01-20T06:37:49.296Z,35.67
2019-01-20T06:40:15.777Z,40.47
2019-01-20T06:42:42.143Z,39.77
2019-01-20T06:45:11.951Z,36.20
2019-01-20T06:47:38.333Z,38.10
2019-01-20T06:50:10.771Z,40.63
2019-01-20T06:52:37.403Z,39.73
2019-01-20T06:55:06.323Z,40.20
2019-01-20T06:57:32.928Z,39.77
2019-01-20T06:59:59.282Z,36.53
2019-01-20T07:02:25.797Z,39.07
2019-01-20T07:04:52.320Z,34.67
2019-01-20T07:07:18.756Z,37.93
2019-01-20T07:09:45.137Z,34.60
2019-01-20T07:12:11.589Z,35.77
2019-01-20T07:14:38.096Z,37.47
2019-01-20T07:17:04.506Z,37.03
2019-01-20T07:19:32.103Z,41.57
2019-01-20T07:21:59.725Z,33.07
2019-01-20T07:24:26.208Z,34.17
2019-01-20T07:26:52.695Z,32.40
2019-01-20T07:29:19.141Z,33.63
2019-01-20T07:31:45.553Z,32.03
2019-01-20T07:34:11.945Z,31.80
2019-01-20T07:36:38.376Z,33.93
2019-01-20T07:39:05.950Z,30.03
2019-01-20T07:41:32.416Z,36.73
2019-01-20T07:43:58.816Z,33.73
2019-01-20T07:46:25.237Z,35.43
2019-01-20T07:48:51.673Z,33.53
2019-01-20T07:51:18.102Z,32.67
2019-01-20T07:53:44.494Z,35.47
2019-01-20T07:56:11.030Z,35.07
2019-01-20T07:58:37.524Z,32.90
2019-01-20T08:01:03.927Z,31.93
2019-01-20T08:03:30.309Z,34.23
2019-01-20T08:05:56.732Z,32.03
2019-01-20T08:08:23.154Z,36.00
2019-01-20T08:10:49.579Z,35.17
2019-01-20T08:13:16.092Z,31.23
2019-01-20T08:15:42.458Z,33.07
2019-01-20T08:18:08.876Z,34.00
2019-01-20T08:20:35.325Z,33.33
2019-01-20T08:23:03.271Z,34.07
2019-01-20T08:25:29.728Z,36.63
2019-01-20T08:27:56.120Z,34.03
2019-01-20T08:30:24.829Z,36.07
2019-01-20T08:32:51.228Z,39.00
2019-01-20T08:35:17.608Z,39.93
2019-01-20T08:37:45.375Z,37.17
2019-01-20T08:40:16.452Z,36.73
2019-01-20T08:42:42.835Z,36.20
2019-01-20T08:45:15.131Z,36.37
2019-01-20T08:47:43.618Z,36.20
2019-01-20T08:50:10.355Z,31.10
2019-01-20T08:52:37.027Z,38.90
2019-01-20T08:55:06.971Z,31.80
2019-01-20T08:57:33.506Z,37.47
2019-01-20T08:59:59.926Z,34.73
2019-01-20T09:02:26.314Z,39.03
2019-01-20T09:04:53.862Z,38.50
2019-01-20T09:07:20.674Z,35.57
2019-01-20T09:09:47.261Z,39.03
2019-01-20T09:12:13.835Z,40.67
2019-01-20T09:14:40.278Z,43.50
2019-01-20T09:17:06.859Z,46.63
2019-01-20T09:19:33.466Z,40.23
2019-01-20T09:21:59.964Z,42.27
2019-01-20T09:24:26.553Z,41.77
2019-01-20T09:26:52.955Z,38.40
2019-01-20T09:29:19.576Z,42.10
2019-01-20T09:31:45.983Z,41.77
2019-01-20T09:34:12.403Z,40.10
2019-01-20T09:36:38.824Z,38.77
2019-01-20T09:39:09.275Z,39.17
2019-01-20T09:41:36.027Z,44.83
2019-01-20T09:44:02.501Z,42.70
2019-01-20T09:46:28.917Z,38.83
2019-01-20T09:48:55.373Z,39.70
2019-01-20T09:51:22.045Z,39.07
2019-01-20T09:53:48.530Z,40.30
2019-01-20T09:56:15.106Z,34.93
2019-01-20T09:58:41.634Z,42.20
2019-01-20T10:01:08.083Z,44.43
2019-01-20T10:03:34.526Z,45.27
2019-01-20T10:06:01.098Z,36.13
2019-01-20T10:08:27.571Z,42.47
2019-01-20T10:10:54.042Z,38.63
2019-01-20T10:13:20.509Z,47.33
2019-01-20T10:15:52.330Z,46.73
2019-01-20T10:18:18.446Z,42.60
2019-01-20T10:20:44.848Z,42.00
2019-01-20T10:23:11.485Z,36.10
2019-01-20T10:25:37.858Z,44.03
2019-01-20T10:28:05.070Z,41.87
2019-01-20T10:30:35.208Z,40.70
2019-01-20T10:33:01.600Z,41.03
2019-01-20T10:35:30.255Z,39.53
2019-01-20T10:37:58.566Z,44.67
2019-01-20T10:40:24.936Z,41.53
2019-01-20T10:42:51.343Z,39.20
2019-01-20T10:45:17.682Z,41.40
2019-01-20T10:47:44.058Z,39.97
2019-01-20T10:50:13.777Z,46.40
2019-01-20T10:52:40.164Z,38.20
2019-01-20T10:55:07.214Z,37.67
2019-01-20T10:57:33.740Z,37.83
2019-01-20T11:00:00.186Z,42.73
2019-01-20T11:02:26.754Z,37.57
2019-01-20T11:04:57.289Z,38.07
2019-01-20T11:07:21.599Z,41.40
2019-01-20T11:09:48.121Z,38.10
2019-01-20T11:12:14.475Z,36.80
2019-01-20T11:14:40.966Z,35.33
2019-01-20T11:17:07.562Z,35.33
2019-01-20T11:19:34.059Z,34.57
2019-01-20T11:22:00.493Z,43.80
2019-01-20T11:24:27.245Z,36.37
2019-01-20T11:26:53.872Z,30.43
2019-01-20T11:29:20.421Z,42.83
2019-01-20T11:31:46.787Z,39.60
2019-01-20T11:34:13.203Z,33.43
2019-01-20T11:36:39.606Z,32.67
2019-01-20T11:39:08.184Z,33.63
2019-01-20T11:41:34.691Z,30.60
2019-01-20T11:44:01.053Z,26.63
2019-01-20T11:46:27.483Z,29.47
2019-01-20T11:48:54.005Z,34.77
2019-01-20T11:51:20.416Z,28.77
2019-01-20T11:53:46.812Z,47.70
2019-01-20T11:56:13.230Z,27.33
2019-01-20T11:58:39.562Z,31.17
2019-01-20T12:01:06.155Z,35.80
2019-01-20T12:03:32.623Z,33.40
2019-01-20T12:05:59.197Z,33.13
2019-01-20T12:08:30.605Z,26.50
2019-01-20T12:10:54.273Z,39.60
2019-01-20T12:13:22.748Z,29.83
2019-01-20T12:15:49.187Z,30.37
2019-01-20T12:18:15.788Z,37.73
2019-01-20T12:20:42.118Z,28.27
2019-01-20T12:23:08.535Z,29.13
2019-01-20T12:25:34.978Z,31.67
2019-01-20T12:28:01.387Z,36.20
2019-01-20T12:30:32.674Z,27.97
2019-01-20T12:32:59.342Z,28.37
2019-01-20T14:29:55.620Z,65.78
2019-01-20T14:32:26.205Z,49.90
2019-01-20T14:34:53.704Z,51.90
2019-01-20T14:37:32.136Z,43.90
2019-01-20T14:40:17.531Z,49.17
2019-01-20T14:42:43.919Z,41.70
2019-01-20T14:46:40.390Z,61.90
2019-01-20T14:49:06.842Z,69.03
2019-01-20T14:51:33.261Z,57.07
2019-01-20T14:53:59.770Z,58.13
2019-01-20T14:56:26.360Z,59.17
2019-01-20T14:58:52.925Z,59.53
2019-01-20T15:01:19.559Z,67.17
2019-01-20T15:03:46.939Z,67.10
2019-01-20T15:06:13.373Z,67.77
2019-01-20T15:08:39.895Z,72.63
2019-01-20T15:11:06.297Z,73.23
2019-01-20T15:13:32.832Z,75.63
2019-01-20T15:15:59.333Z,75.83
2019-01-20T15:18:25.706Z,73.03
2019-01-20T15:20:52.057Z,72.73
2019-01-20T15:23:18.517Z,68.47
2019-01-20T15:25:44.911Z,63.37
2019-01-20T15:28:11.277Z,69.37
2019-01-20T15:30:37.675Z,78.77
2019-01-20T15:33:04.475Z,124.87
2019-01-20T15:35:31.046Z,145.57
2019-01-20T15:37:57.569Z,172.67
2019-01-20T15:40:24.090Z,82.90
2019-01-20T15:42:50.516Z,94.97
2019-01-20T15:45:20.407Z,78.17
2019-01-20T15:47:46.789Z,73.47
2019-01-20T15:50:18.022Z,75.77
2019-01-20T15:52:44.576Z,66.97
2019-01-20T15:55:11.038Z,74.13
2019-01-20T15:57:37.662Z,69.57
2019-01-20T16:00:09.779Z,71.37
2019-01-20T16:02:36.170Z,82.03
2019-01-20T16:05:04.598Z,75.47
2019-01-20T16:07:31.093Z,70.37
2019-01-20T16:09:57.608Z,70.90
2019-01-20T16:12:24.024Z,72.67
2019-01-20T16:14:50.409Z,73.47
2019-01-20T16:17:16.802Z,74.63
2019-01-20T16:19:43.205Z,72.60
2019-01-20T16:22:09.639Z,72.57
2019-01-20T16:24:37.015Z,87.70
2019-01-20T16:27:03.541Z,76.77
2019-01-20T16:29:29.929Z,84.20
2019-01-20T16:31:56.299Z,74.93
2019-01-20T16:34:22.710Z,83.80
2019-01-20T16:36:49.181Z,76.97
2019-01-20T16:39:15.558Z,74.20
2019-01-20T16:41:42.085Z,73.20
2019-01-20T16:44:08.527Z,61.63
2019-01-20T16:46:34.883Z,61.13
2019-01-20T16:49:01.357Z,60.77
2019-01-20T16:51:27.768Z,57.73
2019-01-20T16:53:57.354Z,61.10
2019-01-20T16:56:23.721Z,64.63
2019-01-20T16:58:51.493Z,55.57
2019-01-20T17:01:18.115Z,50.53
2019-01-20T17:03:44.469Z,48.43
2019-01-20T17:06:10.876Z,55.67
2019-01-20T17:08:37.344Z,53.97
2019-01-20T17:11:03.690Z,48.57
2019-01-20T17:13:30.113Z,46.27
2019-01-20T17:15:56.478Z,56.40
2019-01-20T17:18:23.579Z,47.77
2019-01-20T17:20:50.066Z,53.07
2019-01-20T17:23:16.446Z,61.40
2019-01-20T17:25:42.873Z,56.60
2019-01-20T17:28:09.329Z,47.07
2019-01-20T17:30:37.133Z,45.87
2019-01-20T17:33:07.259Z,49.87
2019-01-20T17:35:35.379Z,80.77
2019-01-20T17:38:02.255Z,73.87
2019-01-20T17:40:29.583Z,63.77
2019-01-20T17:42:56.172Z,51.67
2019-01-20T17:45:27.844Z,59.43
2019-01-20T17:47:54.423Z,84.97
2019-01-20T17:50:25.730Z,83.63
2019-01-20T17:52:52.792Z,71.03
2019-01-20T17:55:19.379Z,60.13
2019-01-20T17:57:45.784Z,60.10
2019-01-20T18:00:17.371Z,59.10
2019-01-20T18:02:43.985Z,115.17
2019-01-20T18:05:24.106Z,58.50
2019-01-20T18:07:51.722Z,70.73
2019-01-20T18:10:18.393Z,76.37
2019-01-20T18:12:44.919Z,104.93
2019-01-20T18:15:15.489Z,101.97
2019-01-20T18:17:41.923Z,113.83
2019-01-20T18:20:14.002Z,90.47
2019-01-20T18:22:40.453Z,149.77
2019-01-20T18:25:11.725Z,154.10
2019-01-20T18:27:38.195Z,142.20
2019-01-20T18:30:11.418Z,87.63
2019-01-20T18:32:38.206Z,85.07
2019-01-20T18:35:09.867Z,112.27
2019-01-20T18:37:36.371Z,220.70
2019-01-20T18:40:09.036Z,135.47
2019-01-20T18:42:35.767Z,71.17
2019-01-20T18:45:03.367Z,83.30
2019-01-20T18:47:29.907Z,124.23
2019-01-20T18:49:56.833Z,191.20
2019-01-20T18:52:23.999Z,117.90
2019-01-20T18:54:50.574Z,204.63
2019-01-20T18:57:17.147Z,173.97
2019-01-20T18:59:43.877Z,123.17
2019-01-20T19:02:10.465Z,145.07
2019-01-20T19:04:37.162Z,138.67
2019-01-20T19:07:06.743Z,105.70
2019-01-20T19:09:35.291Z,133.80
2019-01-20T19:12:02.153Z,83.03
2019-01-20T19:14:28.616Z,96.97
2019-01-20T19:16:54.964Z,207.37
2019-01-20T19:19:21.366Z,135.63
2019-01-20T19:21:47.779Z,189.17
2019-01-20T19:24:14.175Z,211.33
2019-01-20T19:26:40.587Z,115.47
2019-01-20T19:29:07.075Z,86.33
2019-01-20T19:31:33.815Z,127.00
2019-01-20T19:34:00.303Z,266.03
2019-01-20T19:36:26.729Z,306.10
2019-01-20T19:38:53.295Z,225.43
2019-01-20T19:41:19.950Z,209.33
2019-01-20T19:43:46.339Z,261.30
2019-01-20T19:46:16.395Z,172.30
2019-01-20T19:48:42.327Z,135.20
2019-01-20T19:51:09.170Z,97.20
2019-01-20T19:53:36.892Z,76.93
2019-01-20T19:56:03.647Z,74.30
2019-01-20T19:58:30.841Z,87.90
2019-01-20T20:00:57.403Z,76.27
2019-01-20T20:03:24.407Z,80.23
2019-01-20T20:05:50.846Z,83.87
2019-01-20T20:08:17.290Z,89.87
2019-01-20T20:10:43.663Z,80.77
2019-01-20T20:13:10.098Z,91.70
2019-01-20T20:15:36.566Z,90.37
2019-01-20T20:18:02.946Z,87.27
2019-01-20T20:20:29.461Z,94.83
2019-01-20T20:22:55.976Z,108.77
2019-01-20T20:25:24.256Z,106.73
2019-01-20T20:27:51.917Z,103.07
2019-01-20T20:30:23.692Z,99.93
2019-01-20T20:32:51.287Z,138.57
2019-01-20T20:35:17.860Z,114.73
2019-01-20T20:37:44.246Z,106.17
2019-01-20T20:40:15.131Z,94.60
2019-01-20T20:42:41.724Z,96.67
2019-01-20T20:45:13.331Z,84.20
2019-01-20T20:47:39.833Z,95.87
2019-01-20T20:50:10.916Z,92.20
2019-01-20T20:52:38.340Z,89.60
2019-01-20T20:55:07.016Z,92.23
2019-01-20T20:57:34.045Z,97.73
2019-01-20T21:00:00.659Z,88.33
2019-01-20T21:02:27.561Z,94.53
2019-01-20T21:04:53.906Z,86.40
2019-01-20T21:07:20.376Z,110.40
2019-01-20T21:09:46.734Z,117.67
2019-01-20T21:12:14.349Z,129.13
2019-01-20T21:14:40.738Z,105.10
2019-01-20T21:17:07.102Z,100.73
2019-01-20T21:19:33.509Z,114.13
2019-01-20T21:22:00.066Z,112.43
2019-01-20T21:24:28.183Z,124.33
2019-01-20T21:26:54.815Z,210.57
2019-01-20T21:29:21.310Z,181.73
2019-01-20T21:31:47.688Z,159.23
2019-01-20T21:34:14.055Z,126.47
2019-01-20T21:36:40.455Z,140.13
2019-01-20T21:39:06.909Z,122.07
2019-01-20T21:41:33.304Z,107.50
2019-01-20T21:43:59.663Z,125.33
2019-01-20T21:46:26.063Z,345.77
2019-01-20T21:48:52.439Z,95.17
2019-01-20T21:51:18.940Z,91.03
2019-01-20T21:53:45.595Z,115.37
2019-01-20T21:56:11.997Z,85.17
2019-01-20T21:58:38.379Z,108.07
2019-01-20T22:01:06.864Z,106.33
2019-01-20T22:03:33.492Z,210.77
2019-01-20T22:05:59.907Z,123.20
2019-01-20T22:08:26.252Z,92.63
2019-01-20T22:10:52.940Z,125.03
2019-01-20T22:13:19.330Z,123.73
2019-01-20T22:15:45.669Z,271.70
2019-01-20T22:18:12.105Z,160.67
2019-01-20T22:20:38.480Z,84.50
2019-01-20T22:23:04.817Z,96.70
2019-01-20T22:25:31.228Z,127.07
2019-01-20T22:27:57.577Z,100.90
2019-01-20T22:30:24.773Z,106.77
2019-01-20T22:32:51.516Z,91.17
2019-01-20T22:35:18.157Z,86.30
2019-01-20T22:37:44.625Z,91.37
2019-01-20T22:40:14.658Z,84.33
2019-01-20T22:42:41.091Z,97.37
2019-01-20T22:45:11.925Z,93.43
2019-01-20T22:47:38.828Z,108.73
2019-01-20T22:50:09.903Z,92.53
2019-01-20T22:52:36.434Z,89.90
2019-01-20T22:55:07.561Z,112.93
2019-01-20T22:57:33.948Z,134.47
2019-01-20T23:00:00.563Z,70.57
2019-01-20T23:02:27.148Z,224.77
2019-01-20T23:04:53.927Z,82.53
2019-01-20T23:07:21.803Z,85.63
2019-01-20T23:10:01.327Z,73.90
2019-01-20T23:12:28.664Z,91.57
2019-01-20T23:15:02.437Z,129.43
2019-01-20T23:17:31.282Z,80.83
2019-01-20T23:19:57.990Z,134.77
2019-01-20T23:22:24.402Z,106.00
2019-01-20T23:24:50.809Z,94.47
2019-01-20T23:27:17.351Z,87.37
2019-01-20T23:29:43.919Z,133.50
2019-01-20T23:32:10.297Z,117.10
2019-01-20T23:34:36.918Z,98.53
2019-01-20T23:37:03.523Z,156.97
2019-01-20T23:39:29.965Z,87.20
2019-01-20T23:41:56.541Z,105.90
2019-01-20T23:44:22.921Z,97.30
2019-01-20T23:46:49.444Z,118.00
2019-01-20T23:49:15.795Z,89.30
2019-01-20T23:51:42.363Z,116.40
2019-01-20T23:54:08.850Z,102.23
2019-01-20T23:56:35.392Z,93.93
2019-01-20T23:59:01.965Z,95.17
